Time;durP1;ratioP1;P1;durP2;ratioP2;P2;SDS_P1;SDS_P2;PMS_P1;PMS_P2;Temp;Humidity;BMP_temperature;BMP_pressure;BME280_temperature;BME280_humidity;BME280_pressure;Samples;Min_cycle;Max_cycle;Signal;HPM_P1;HPM_P2
2023/02/06 00:00:28;;;;;;;19.40;12.55;;;0.00;99.90;;;;;;5075724;28;20173;-50
2023/02/06 00:03:15;;;;;;;18.92;12.68;;;0.00;99.90;;;;;;5086867;28;20066;-55
2023/02/06 00:06:01;;;;;;;18.25;11.70;;;0.00;99.90;;;;;;5091798;28;20407;-53
2023/02/06 00:08:47;;;;;;;17.08;11.82;;;-0.10;99.90;;;;;;5072603;28;20550;-53
2023/02/06 00:11:33;;;;;;;18.27;12.90;;;-0.10;99.90;;;;;;5084465;28;20067;-58
2023/02/06 00:14:19;;;;;;;17.75;13.07;;;-0.10;99.90;;;;;;5072095;28;20124;-49
2023/02/06 00:17:05;;;;;;;16.63;12.07;;;-0.10;99.90;;;;;;5083450;28;20036;-53
2023/02/06 00:19:51;;;;;;;15.15;11.88;;;-0.10;99.90;;;;;;5092058;28;20028;-54
2023/02/06 00:22:37;;;;;;;16.00;12.43;;;-0.20;99.90;;;;;;5091875;28;20054;-50
2023/02/06 00:25:23;;;;;;;15.57;11.73;;;-0.20;99.90;;;;;;5090834;28;20103;-52
2023/02/06 00:28:09;;;;;;;16.80;12.85;;;-0.20;99.90;;;;;;5073657;28;20055;-54
2023/02/06 00:30:54;;;;;;;21.80;14.75;;;-0.20;99.90;;;;;;5088953;28;20103;-50
2023/02/06 00:33:41;;;;;;;22.55;15.07;;;-0.20;99.90;;;;;;5082080;28;20032;-47
2023/02/06 00:36:27;;;;;;;17.38;12.25;;;-0.30;99.90;;;;;;5071425;28;20032;-48
2023/02/06 00:39:12;;;;;;;17.85;12.10;;;-0.40;99.90;;;;;;5074536;28;20032;-50
2023/02/06 00:41:58;;;;;;;16.15;11.68;;;-0.40;99.90;;;;;;5073123;28;20028;-49
2023/02/06 00:44:44;;;;;;;14.57;10.27;;;-0.40;99.90;;;;;;5074597;28;20412;-50
2023/02/06 00:47:30;;;;;;;12.77;9.63;;;-0.40;99.90;;;;;;5081409;28;20036;-50
2023/02/06 00:50:19;;;;;;;14.43;11.07;;;-0.40;99.90;;;;;;5090832;28;20024;-53
2023/02/06 00:53:05;;;;;;;17.52;11.55;;;-0.40;99.90;;;;;;5090605;28;20028;-49
2023/02/06 00:55:51;;;;;;;18.48;12.43;;;-0.40;99.90;;;;;;5075177;28;20028;-53
2023/02/06 00:58:37;;;;;;;15.55;12.10;;;-0.50;99.90;;;;;;5071700;28;20552;-50
2023/02/06 01:01:25;;;;;;;20.10;12.35;;;-0.50;99.90;;;;;;5077859;28;20036;-51
2023/02/06 01:04:11;;;;;;;16.10;12.00;;;-0.50;99.90;;;;;;5091240;28;20110;-52
2023/02/06 01:06:56;;;;;;;17.17;12.70;;;-0.50;99.90;;;;;;5072028;28;20025;-50
2023/02/06 01:09:42;;;;;;;15.88;12.07;;;-0.50;99.90;;;;;;5072088;28;20013;-51
2023/02/06 01:12:28;;;;;;;16.58;12.68;;;-0.40;99.90;;;;;;5073470;28;20099;-52
2023/02/06 01:15:14;;;;;;;16.95;12.95;;;-0.40;99.90;;;;;;5084146;28;20024;-51
2023/02/06 01:18:00;;;;;;;15.88;12.50;;;-0.40;99.90;;;;;;5075262;28;20085;-50
2023/02/06 01:20:46;;;;;;;17.65;12.45;;;-0.30;99.90;;;;;;5088562;28;20025;-48
2023/02/06 01:23:32;;;;;;;19.92;12.95;;;-0.30;99.90;;;;;;5090477;28;20111;-48
2023/02/06 01:26:21;;;;;;;17.98;11.73;;;-0.40;99.90;;;;;;5070590;28;20029;-49
2023/02/06 01:29:07;;;;;;;18.83;12.75;;;-0.40;99.90;;;;;;5080540;28;20024;-50
2023/02/06 01:31:53;;;;;;;15.82;12.30;;;-0.40;99.90;;;;;;5087965;28;20028;-48
2023/02/06 01:34:39;;;;;;;17.08;13.15;;;-0.30;99.90;;;;;;5057968;28;20033;-49
2023/02/06 01:37:25;;;;;;;18.23;12.95;;;-0.40;99.90;;;;;;5072892;28;20036;-47
2023/02/06 01:40:14;;;;;;;18.50;13.95;;;-0.40;99.90;;;;;;5081080;28;20488;-52
2023/02/06 01:43:00;;;;;;;17.58;12.90;;;-0.30;99.90;;;;;;5074066;28;20086;-48
2023/02/06 01:45:46;;;;;;;17.30;14.20;;;-0.30;99.90;;;;;;5090014;28;20051;-50
2023/02/06 01:48:49;;;;;;;18.52;13.07;;;-0.30;99.90;;;;;;5081835;28;20043;-53
2023/02/06 01:51:35;;;;;;;16.70;12.93;;;-0.40;99.90;;;;;;5085379;28;20024;-49
2023/02/06 01:54:21;;;;;;;18.58;13.02;;;-0.40;99.90;;;;;;5087252;28;20047;-50
2023/02/06 01:57:10;;;;;;;17.80;12.73;;;-0.30;99.90;;;;;;5086760;28;20031;-47
2023/02/06 02:00:04;;;;;;;16.65;11.93;;;-0.30;99.90;;;;;;5088397;28;20073;-48
2023/02/06 02:02:50;;;;;;;18.30;13.43;;;-0.20;99.90;;;;;;5075456;28;20073;-51
2023/02/06 02:05:39;;;;;;;17.25;13.18;;;-0.20;99.90;;;;;;5085287;28;20055;-49
2023/02/06 02:08:34;;;;;;;18.38;12.00;;;-0.30;99.90;;;;;;5089499;28;20028;-50
2023/02/06 02:11:24;;;;;;;19.40;12.63;;;-0.20;99.90;;;;;;5089480;28;20020;-53
2023/02/06 02:14:13;;;;;;;18.05;13.55;;;-0.20;99.90;;;;;;5089523;28;20028;-53
2023/02/06 02:17:38;;;;;;;17.45;12.90;;;-0.20;99.90;;;;;;5084725;28;20081;-51
2023/02/06 02:20:48;;;;;;;17.25;12.27;;;-0.20;99.90;;;;;;5089741;28;20068;-51
2023/02/06 02:23:39;;;;;;;17.73;13.13;;;-0.20;99.90;;;;;;5083970;28;20087;-50
2023/02/06 02:26:44;;;;;;;21.90;13.15;;;-0.30;99.90;;;;;;5083530;28;20025;-51
2023/02/06 02:29:45;;;;;;;19.30;13.63;;;-0.30;99.90;;;;;;5069957;28;20039;-49
2023/02/06 02:32:57;;;;;;;16.25;12.38;;;-0.30;99.90;;;;;;5069257;28;20035;-54
2023/02/06 02:35:49;;;;;;;16.70;12.07;;;-0.20;99.90;;;;;;5057533;28;20040;-50
2023/02/06 02:38:52;;;;;;;16.80;12.50;;;-0.20;99.90;;;;;;5072176;28;20077;-48
2023/02/06 02:42:14;;;;;;;18.52;12.98;;;-0.20;99.90;;;;;;5088776;28;20025;-48
2023/02/06 02:45:24;;;;;;;17.10;13.20;;;-0.20;99.90;;;;;;5023535;28;20109;-48
2023/02/06 02:48:15;;;;;;;19.25;13.13;;;-0.20;99.90;;;;;;5070194;28;20731;-47
2023/02/06 02:51:02;;;;;;;16.80;12.90;;;-0.30;99.90;;;;;;5054446;28;20039;-52
2023/02/06 02:53:48;;;;;;;16.40;12.98;;;-0.30;99.90;;;;;;5069919;28;20037;-49
2023/02/06 02:56:34;;;;;;;19.55;13.30;;;-0.40;99.90;;;;;;5080936;28;20020;-49
2023/02/06 02:59:29;;;;;;;20.40;13.23;;;-0.40;99.90;;;;;;5088622;28;20031;-48
2023/02/06 03:02:23;;;;;;;15.98;11.90;;;-0.40;99.90;;;;;;5072330;28;20037;-49
2023/02/06 03:05:13;;;;;;;17.02;12.65;;;-0.40;99.90;;;;;;5070225;28;20150;-48
2023/02/06 03:08:17;;;;;;;16.10;12.13;;;-0.40;99.90;;;;;;5069084;28;20115;-49
2023/02/06 03:11:13;;;;;;;17.92;12.63;;;-0.30;99.90;;;;;;5074646;28;20027;-50
2023/02/06 03:14:09;;;;;;;16.25;11.85;;;-0.30;99.90;;;;;;5080420;28;20028;-47
2023/02/06 03:17:04;;;;;;;19.20;13.32;;;-0.20;99.90;;;;;;5085787;28;20108;-48
2023/02/06 03:19:54;;;;;;;14.55;12.48;;;-0.20;99.90;;;;;;5088044;28;20024;-51
2023/02/06 03:22:43;;;;;;;18.85;12.52;;;-0.10;99.90;;;;;;5092825;28;20058;-49
2023/02/06 03:25:34;;;;;;;15.65;12.40;;;-0.10;99.90;;;;;;5091922;28;20491;-51
2023/02/06 03:28:31;;;;;;;17.00;13.02;;;-0.10;99.90;;;;;;5072245;28;20174;-48
2023/02/06 03:31:26;;;;;;;16.95;12.93;;;0.00;99.90;;;;;;5085276;28;20034;-50
2023/02/06 03:34:19;;;;;;;19.23;12.45;;;0.00;99.90;;;;;;5078398;28;20042;-53
2023/02/06 03:37:06;;;;;;;18.15;13.95;;;0.00;99.90;;;;;;5084130;28;20385;-51
2023/02/06 03:39:52;;;;;;;19.88;13.88;;;0.00;99.90;;;;;;5083334;28;20031;-52
2023/02/06 03:42:44;;;;;;;16.35;13.05;;;0.00;99.90;;;;;;5072833;28;20028;-50
2023/02/06 03:45:38;;;;;;;17.33;13.23;;;0.00;99.90;;;;;;5086462;28;20028;-51
2023/02/06 03:48:31;;;;;;;18.95;14.15;;;0.00;99.90;;;;;;5072679;28;20028;-51
2023/02/06 03:51:48;;;;;;;19.35;14.70;;;0.00;99.90;;;;;;5073681;28;20493;-53
2023/02/06 03:54:38;;;;;;;21.13;13.98;;;0.00;99.90;;;;;;5087071;28;20036;-50
2023/02/06 03:57:27;;;;;;;21.98;15.88;;;0.00;99.90;;;;;;5083586;28;20511;-50
2023/02/06 04:00:13;;;;;;;18.77;13.48;;;0.00;99.90;;;;;;5079557;28;20404;-49
2023/02/06 04:02:59;;;;;;;21.95;15.27;;;0.00;99.90;;;;;;5082624;28;20686;-46
2023/02/06 04:05:45;;;;;;;19.90;14.25;;;0.10;99.90;;;;;;5092205;28;20028;-47
2023/02/06 04:08:31;;;;;;;20.08;15.20;;;0.10;99.90;;;;;;5092139;28;20557;-49
2023/02/06 04:11:17;;;;;;;20.42;16.65;;;0.10;99.90;;;;;;5091558;28;20024;-50
2023/02/06 04:14:03;;;;;;;21.10;15.57;;;0.10;99.90;;;;;;5088378;28;20544;-46
2023/02/06 04:16:49;;;;;;;23.13;16.83;;;0.10;99.90;;;;;;5071548;28;20032;-48
2023/02/06 04:19:36;;;;;;;21.13;15.63;;;0.20;99.90;;;;;;5080026;28;20513;-46
2023/02/06 04:22:22;;;;;;;22.25;15.90;;;0.20;99.90;;;;;;5090194;28;20024;-47
2023/02/06 04:25:08;;;;;;;21.92;15.98;;;0.10;99.90;;;;;;5075837;28;20088;-47
2023/02/06 04:27:54;;;;;;;24.10;17.77;;;0.20;99.90;;;;;;5076469;28;20028;-47
2023/02/06 04:30:40;;;;;;;22.25;16.65;;;0.20;99.90;;;;;;5091755;28;20036;-47
2023/02/06 04:33:26;;;;;;;23.70;17.27;;;0.20;99.90;;;;;;5080511;28;20089;-47
2023/02/06 04:36:12;;;;;;;23.45;17.50;;;0.20;99.90;;;;;;5072286;28;20060;-54
2023/02/06 04:38:58;;;;;;;20.52;15.73;;;0.30;99.90;;;;;;5071625;28;20051;-51
2023/02/06 04:41:44;;;;;;;19.38;15.90;;;0.30;99.90;;;;;;5088604;28;20024;-51
2023/02/06 04:44:31;;;;;;;23.00;18.05;;;0.30;99.90;;;;;;5083949;28;20037;-49
2023/02/06 04:47:17;;;;;;;25.05;16.88;;;0.40;99.90;;;;;;5071762;28;20020;-48
2023/02/06 04:50:03;;;;;;;21.33;16.40;;;0.40;99.90;;;;;;5082025;28;20080;-48
2023/02/06 04:52:49;;;;;;;19.25;15.75;;;0.50;99.90;;;;;;5090979;28;20024;-53
2023/02/06 04:55:35;;;;;;;21.10;17.48;;;0.50;99.90;;;;;;5076998;28;20025;-50
2023/02/06 04:58:21;;;;;;;20.45;16.27;;;0.50;99.90;;;;;;5084226;28;20040;-50
2023/02/06 05:01:07;;;;;;;21.85;18.35;;;0.50;99.90;;;;;;5090854;28;20055;-46
2023/02/06 05:03:53;;;;;;;25.30;19.10;;;0.60;99.90;;;;;;5086948;28;20572;-48
2023/02/06 05:06:39;;;;;;;25.48;18.27;;;0.50;99.90;;;;;;5062061;28;20487;-47
2023/02/06 05:09:25;;;;;;;27.92;20.60;;;0.50;99.90;;;;;;5071813;28;20450;-47
2023/02/06 05:12:11;;;;;;;25.20;19.42;;;0.50;99.90;;;;;;5088589;28;20056;-49
2023/02/06 05:14:57;;;;;;;23.70;18.40;;;0.50;99.90;;;;;;5090090;28;20035;-47
2023/02/06 05:17:43;;;;;;;23.73;19.00;;;0.50;99.90;;;;;;5070356;28;20032;-51
2023/02/06 05:20:29;;;;;;;24.90;18.63;;;0.50;99.90;;;;;;5072545;28;20020;-49
2023/02/06 05:23:15;;;;;;;26.42;19.67;;;0.50;99.90;;;;;;5090081;28;20024;-48
2023/02/06 05:26:01;;;;;;;25.45;19.48;;;0.60;99.90;;;;;;5055280;28;20028;-46
2023/02/06 05:28:47;;;;;;;27.23;19.92;;;0.60;99.90;;;;;;5074314;28;20027;-47
2023/02/06 05:31:33;;;;;;;35.25;20.52;;;0.60;99.90;;;;;;5088896;28;20056;-47
2023/02/06 05:34:19;;;;;;;31.48;22.63;;;0.60;99.90;;;;;;5082850;28;20384;-49
2023/02/06 05:37:05;;;;;;;32.10;22.77;;;0.60;99.90;;;;;;5085710;28;20032;-50
2023/02/06 05:39:51;;;;;;;32.70;23.35;;;0.50;99.90;;;;;;5070391;28;20094;-51
2023/02/06 05:42:37;;;;;;;31.58;22.95;;;0.50;99.90;;;;;;5078072;28;20028;-50
2023/02/06 05:45:24;;;;;;;28.92;22.58;;;0.50;99.90;;;;;;5089817;28;20103;-51
2023/02/06 05:48:09;;;;;;;31.10;22.08;;;0.50;99.90;;;;;;5071279;28;20033;-48
2023/02/06 05:50:57;;;;;;;32.95;23.15;;;0.50;99.90;;;;;;5083416;28;20067;-50
2023/02/06 05:53:43;;;;;;;29.88;21.92;;;0.60;99.90;;;;;;5090526;28;20699;-47
2023/02/06 05:56:29;;;;;;;30.70;21.98;;;0.60;99.90;;;;;;5088945;28;20085;-48
2023/02/06 05:59:14;;;;;;;32.55;23.10;;;0.70;99.90;;;;;;5062178;28;20162;-48
2023/02/06 06:02:00;;;;;;;31.02;22.25;;;0.70;99.90;;;;;;5081799;28;20056;-48
2023/02/06 06:04:46;;;;;;;29.52;21.58;;;0.70;99.90;;;;;;5088121;28;20056;-49
2023/02/06 06:07:32;;;;;;;30.83;23.75;;;0.80;99.90;;;;;;5070021;28;20473;-49
2023/02/06 06:10:26;;;;;;;32.03;23.20;;;0.80;99.90;;;;;;5083663;28;20036;-56
2023/02/06 06:13:15;;;;;;;29.60;21.98;;;0.80;99.90;;;;;;5089270;28;20100;-54
2023/02/06 06:16:01;;;;;;;31.05;22.58;;;0.80;99.90;;;;;;5054572;28;20039;-50
2023/02/06 06:18:47;;;;;;;33.33;23.13;;;0.90;99.90;;;;;;5083173;28;20032;-49
2023/02/06 06:21:33;;;;;;;31.15;21.70;;;0.90;99.90;;;;;;5089967;28;20430;-50
2023/02/06 06:24:19;;;;;;;32.50;23.23;;;1.00;99.90;;;;;;5072698;28;20035;-48
2023/02/06 06:27:09;;;;;;;29.10;21.95;;;0.90;99.90;;;;;;5084488;28;20119;-50
2023/02/06 06:30:00;;;;;;;28.65;22.25;;;0.90;99.90;;;;;;5080776;28;20020;-53
2023/02/06 06:32:46;;;;;;;31.52;22.80;;;1.00;99.90;;;;;;5074850;28;20523;-50
2023/02/06 06:35:32;;;;;;;35.90;22.95;;;1.00;99.90;;;;;;5074572;28;20032;-50
2023/02/06 06:38:18;;;;;;;32.95;23.05;;;1.00;99.90;;;;;;5069958;28;20032;-49
2023/02/06 06:41:04;;;;;;;29.33;22.27;;;0.90;99.90;;;;;;5070615;28;20024;-49
2023/02/06 06:43:54;;;;;;;33.92;21.65;;;1.00;99.90;;;;;;5089221;28;20028;-51
2023/02/06 06:46:40;;;;;;;29.98;22.42;;;1.00;99.90;;;;;;5068032;28;20161;-52
2023/02/06 06:49:26;;;;;;;28.30;20.65;;;1.10;99.90;;;;;;5084927;28;20075;-50
2023/02/06 06:52:12;;;;;;;28.33;21.30;;;1.10;99.90;;;;;;5070250;28;20028;-48
2023/02/06 06:54:58;;;;;;;31.50;22.25;;;1.10;99.90;;;;;;5087803;28;20043;-49
2023/02/06 06:57:45;;;;;;;34.63;22.10;;;1.00;99.90;;;;;;5088685;28;20032;-49
2023/02/06 07:00:31;;;;;;;30.98;23.38;;;1.10;99.90;;;;;;5089964;28;20013;-48
2023/02/06 07:03:17;;;;;;;33.25;22.35;;;1.10;99.90;;;;;;5068365;28;20028;-49
2023/02/06 07:06:04;;;;;;;30.38;22.63;;;1.20;99.90;;;;;;5089922;28;20028;-48
2023/02/06 07:08:50;;;;;;;32.17;22.67;;;1.10;99.90;;;;;;5076518;28;20200;-48
2023/02/06 07:11:36;;;;;;;31.80;22.48;;;1.10;99.90;;;;;;5091332;28;20055;-51
2023/02/06 07:14:22;;;;;;;29.98;21.95;;;1.10;99.90;;;;;;5093149;28;20127;-49
2023/02/06 07:17:08;;;;;;;34.90;24.67;;;1.20;99.90;;;;;;5084033;28;20059;-50
2023/02/06 07:19:54;;;;;;;36.83;24.77;;;1.20;99.90;;;;;;5092183;28;20051;-48
2023/02/06 07:22:40;;;;;;;39.17;25.30;;;1.20;99.90;;;;;;5093435;28;20028;-54
2023/02/06 07:25:26;;;;;;;39.47;25.88;;;1.20;99.90;;;;;;5084963;28;20032;-50
2023/02/06 07:28:12;;;;;;;43.80;25.65;;;1.30;99.90;;;;;;5092156;28;20055;-47
2023/02/06 07:31:05;;;;;;;39.00;26.38;;;1.40;99.90;;;;;;5090159;28;20028;-55
2023/02/06 07:33:51;;;;;;;40.28;25.38;;;1.40;99.90;;;;;;5088119;28;20515;-51
2023/02/06 07:36:37;;;;;;;46.67;27.15;;;1.30;99.90;;;;;;5083353;28;20059;-52
2023/02/06 07:39:23;;;;;;;41.30;28.15;;;1.10;99.90;;;;;;5097577;28;20029;-48
2023/02/06 07:42:10;;;;;;;46.25;27.33;;;1.20;99.90;;;;;;5091224;28;20031;-54
2023/02/06 07:44:56;;;;;;;46.75;29.23;;;1.20;99.90;;;;;;5078492;28;20028;-50
2023/02/06 07:47:42;;;;;;;52.22;30.35;;;1.30;99.90;;;;;;5084004;28;20056;-52
2023/02/06 07:50:28;;;;;;;52.85;29.95;;;1.30;99.90;;;;;;5086497;28;20027;-55
2023/02/06 07:53:14;;;;;;;54.55;29.83;;;1.20;99.90;;;;;;5070863;28;20032;-55
2023/02/06 07:56:01;;;;;;;46.10;28.25;;;1.30;99.90;;;;;;5084758;28;20132;-52
2023/02/06 07:58:51;;;;;;;58.67;29.05;;;1.40;99.90;;;;;;5097184;28;20541;-49
2023/02/06 08:01:37;;;;;;;56.42;29.25;;;1.50;99.90;;;;;;5087383;28;20031;-49
2023/02/06 08:04:23;;;;;;;63.17;30.92;;;1.50;99.90;;;;;;5085412;28;20020;-51
2023/02/06 08:07:13;;;;;;;56.30;30.00;;;1.40;99.90;;;;;;5088391;28;20028;-47
2023/02/06 08:09:59;;;;;;;58.55;30.00;;;1.50;99.90;;;;;;5090314;28;20032;-50
2023/02/06 08:12:45;;;;;;;55.60;28.42;;;1.50;99.90;;;;;;5071759;28;20024;-47
2023/02/06 08:15:31;;;;;;;62.58;28.73;;;1.50;99.90;;;;;;5076394;28;20069;-51
2023/02/06 08:18:17;;;;;;;66.15;29.73;;;1.50;99.90;;;;;;5078764;28;20085;-53
2023/02/06 08:21:05;;;;;;;54.35;27.65;;;1.50;99.90;;;;;;5079875;28;20032;-51
2023/02/06 08:23:56;;;;;;;54.60;28.75;;;1.40;99.90;;;;;;5080610;28;20031;-51
2023/02/06 08:26:42;;;;;;;58.38;28.85;;;1.50;99.90;;;;;;5058200;28;20055;-53
2023/02/06 08:29:29;;;;;;;58.30;28.20;;;1.50;99.90;;;;;;5080197;28;20036;-49
2023/02/06 08:32:14;;;;;;;53.05;28.80;;;1.50;99.90;;;;;;5081877;28;20028;-49
2023/02/06 08:35:01;;;;;;;61.78;27.55;;;1.60;99.90;;;;;;5080159;28;20020;-48
2023/02/06 08:37:48;;;;;;;58.55;29.02;;;1.50;99.90;;;;;;5079764;28;20024;-53
2023/02/06 08:40:33;;;;;;;56.53;27.23;;;1.50;99.90;;;;;;5081316;28;20043;-49
2023/02/06 08:43:20;;;;;;;55.50;27.10;;;1.50;99.90;;;;;;5078265;28;20044;-50
2023/02/06 08:46:05;;;;;;;61.25;27.77;;;1.50;99.90;;;;;;5086778;28;20028;-52
2023/02/06 08:49:18;;;;;;;57.42;27.10;;;1.60;99.90;;;;;;5090487;28;20032;-53
2023/02/06 08:52:13;;;;;;;53.85;25.70;;;1.60;99.90;;;;;;5079195;28;20035;-49
2023/02/06 08:55:05;;;;;;;57.35;26.95;;;1.70;99.90;;;;;;5075562;28;20034;-48
2023/02/06 08:57:51;;;;;;;57.35;26.75;;;1.70;99.90;;;;;;5085030;28;20044;-48
2023/02/06 09:00:37;;;;;;;50.10;23.80;;;1.70;99.90;;;;;;5082985;28;20024;-51
2023/02/06 09:03:23;;;;;;;50.55;23.15;;;1.90;99.90;;;;;;5083375;28;20029;-48
2023/02/06 09:06:10;;;;;;;51.05;25.42;;;1.90;99.90;;;;;;5081805;28;20113;-56
2023/02/06 09:08:59;;;;;;;51.90;25.77;;;1.80;99.90;;;;;;5083332;28;20032;-51
2023/02/06 09:11:45;;;;;;;52.50;26.10;;;1.80;99.90;;;;;;5076818;28;20108;-50
2023/02/06 09:14:34;;;;;;;51.08;24.30;;;1.80;99.90;;;;;;5068251;28;20028;-54
2023/02/06 09:17:20;;;;;;;43.25;22.63;;;1.90;99.90;;;;;;5066960;28;20121;-53
2023/02/06 09:20:06;;;;;;;43.97;23.10;;;1.90;99.90;;;;;;5078035;28;20052;-48
2023/02/06 09:22:52;;;;;;;41.25;22.80;;;1.90;99.90;;;;;;5090888;28;20491;-52
2023/02/06 09:25:38;;;;;;;43.65;23.17;;;1.90;99.90;;;;;;5061897;28;20043;-49
2023/02/06 09:28:24;;;;;;;45.15;22.30;;;1.90;99.90;;;;;;5070453;28;20070;-51
2023/02/06 09:31:11;;;;;;;45.05;22.92;;;1.80;99.90;;;;;;5085570;28;20036;-49
2023/02/06 09:33:59;;;;;;;42.80;23.10;;;1.80;99.90;;;;;;5089972;28;20029;-47
2023/02/06 09:36:45;;;;;;;38.80;21.80;;;1.90;99.90;;;;;;5069147;28;20032;-47
2023/02/06 09:39:31;;;;;;;43.63;24.20;;;1.90;99.90;;;;;;5081337;28;20028;-51
2023/02/06 09:42:32;;;;;;;41.78;24.77;;;2.00;99.90;;;;;;5077051;28;20020;-52
2023/02/06 09:45:24;;;;;;;43.95;24.35;;;2.10;99.90;;;;;;5070419;28;20035;-53
2023/02/06 09:48:19;;;;;;;41.70;23.70;;;2.00;99.90;;;;;;5088715;28;20499;-52
2023/02/06 09:51:45;;;;;;;37.65;22.10;;;2.00;99.90;;;;;;5074946;28;20032;-50
2023/02/06 09:54:33;;;;;;;38.67;20.23;;;2.00;99.90;;;;;;5071467;28;20115;-51
2023/02/06 09:57:32;;;;;;;36.88;19.80;;;1.90;99.90;;;;;;5071186;28;20024;-52
2023/02/06 10:00:21;;;;;;;36.03;19.88;;;1.90;99.90;;;;;;5071770;28;20024;-49
2023/02/06 10:03:10;;;;;;;34.58;19.38;;;2.00;99.90;;;;;;5090171;28;20146;-49
2023/02/06 10:05:56;;;;;;;32.47;19.73;;;2.00;99.90;;;;;;5073502;28;20067;-54
2023/02/06 10:08:55;;;;;;;34.78;19.73;;;1.90;99.90;;;;;;5082862;28;20074;-50
2023/02/06 10:11:47;;;;;;;38.45;18.83;;;1.90;99.90;;;;;;5089656;28;20076;-52
2023/02/06 10:14:51;;;;;;;30.13;17.45;;;1.80;99.90;;;;;;5070960;28;20032;-53
2023/02/06 10:18:07;;;;;;;30.80;17.13;;;2.00;99.90;;;;;;5071304;28;20032;-51
2023/02/06 10:20:58;;;;;;;29.88;16.88;;;2.20;99.90;;;;;;5069151;28;20158;-50
2023/02/06 10:24:01;;;;;;;29.58;16.10;;;2.00;99.90;;;;;;5089710;28;20024;-51
2023/02/06 10:26:50;;;;;;;25.75;15.50;;;2.20;99.90;;;;;;5087729;28;20396;-51
2023/02/06 10:29:39;;;;;;;24.75;14.77;;;2.20;99.90;;;;;;5088346;28;20058;-47
2023/02/06 10:32:44;;;;;;;23.92;14.80;;;2.20;99.90;;;;;;5068972;28;20089;-54
2023/02/06 10:36:07;;;;;;;23.17;14.63;;;2.20;99.90;;;;;;5073024;28;20028;-50
2023/02/06 10:39:16;;;;;;;20.25;12.57;;;2.20;99.90;;;;;;5086335;28;20024;-50
2023/02/06 10:42:24;;;;;;;21.98;14.52;;;2.10;99.90;;;;;;5084699;28;20472;-49
2023/02/06 10:45:41;;;;;;;21.52;14.10;;;2.10;99.90;;;;;;5086960;28;20024;-51
2023/02/06 10:48:37;;;;;;;24.25;15.18;;;2.00;99.90;;;;;;5089191;28;20024;-49
2023/02/06 10:51:36;;;;;;;21.35;14.77;;;2.10;99.90;;;;;;5089401;28;20416;-50
2023/02/06 10:54:38;;;;;;;24.08;14.45;;;2.20;99.90;;;;;;5088942;28;20032;-49
2023/02/06 10:57:29;;;;;;;18.60;13.25;;;2.20;99.90;;;;;;5088559;28;20032;-51
2023/02/06 11:00:26;;;;;;;25.55;14.45;;;2.20;99.90;;;;;;5088868;28;20510;-49
2023/02/06 11:03:19;;;;;;;24.23;14.80;;;2.10;99.90;;;;;;5089166;28;20032;-50
2023/02/06 11:06:05;;;;;;;21.52;14.57;;;2.00;99.90;;;;;;5089606;28;20473;-54
2023/02/06 11:08:51;;;;;;;23.63;15.32;;;1.90;99.90;;;;;;5089192;28;20059;-50
2023/02/06 11:11:40;;;;;;;23.23;15.93;;;1.90;99.90;;;;;;5088864;28;20028;-52
2023/02/06 11:14:37;;;;;;;24.15;15.55;;;2.00;99.90;;;;;;5088766;28;20431;-48
2023/02/06 11:17:27;;;;;;;26.50;16.35;;;2.00;99.90;;;;;;5088831;28;20138;-47
2023/02/06 11:20:20;;;;;;;26.00;16.70;;;2.00;99.90;;;;;;5089080;28;20031;-56
2023/02/06 11:23:14;;;;;;;25.48;16.15;;;2.00;99.90;;;;;;5088865;28;20016;-52
2023/02/06 11:26:21;;;;;;;28.02;17.95;;;2.00;99.90;;;;;;5088599;28;20016;-50
2023/02/06 11:29:38;;;;;;;23.55;16.55;;;1.90;99.90;;;;;;5089383;28;20036;-52
2023/02/06 11:32:40;;;;;;;27.30;17.75;;;1.80;99.90;;;;;;5089727;28;20024;-50
2023/02/06 11:35:46;;;;;;;29.40;17.30;;;1.80;99.90;;;;;;5088825;28;20093;-51
2023/02/06 11:38:33;;;;;;;27.40;16.13;;;1.90;99.90;;;;;;5069146;28;20028;-48
2023/02/06 11:41:18;;;;;;;33.15;16.70;;;1.80;99.90;;;;;;5070117;28;20115;-50
2023/02/06 11:44:05;;;;;;;22.27;15.70;;;1.90;99.90;;;;;;5073238;28;20021;-51
2023/02/06 11:46:51;;;;;;;26.45;16.10;;;1.90;99.90;;;;;;5072725;28;20102;-52
2023/02/06 11:49:37;;;;;;;24.30;16.35;;;1.90;99.90;;;;;;5071967;28;20029;-52
2023/02/06 11:52:29;;;;;;;25.40;15.27;;;1.90;99.90;;;;;;5073151;28;20450;-52
2023/02/06 11:55:32;;;;;;;23.30;15.20;;;1.90;99.90;;;;;;5072669;28;20542;-53
2023/02/06 11:58:23;;;;;;;23.70;16.20;;;2.00;99.90;;;;;;5072663;28;20035;-50
2023/02/06 12:01:17;;;;;;;25.23;15.20;;;2.00;99.90;;;;;;5071596;28;20070;-52
2023/02/06 12:04:03;;;;;;;22.75;15.50;;;2.10;99.90;;;;;;5071566;28;20074;-54
2023/02/06 12:07:04;;;;;;;23.20;15.20;;;2.10;99.90;;;;;;5071023;28;20029;-54
2023/02/06 12:09:50;;;;;;;23.27;14.82;;;2.20;99.90;;;;;;5056952;28;20020;-54
2023/02/06 12:12:41;;;;;;;22.98;15.13;;;2.10;99.90;;;;;;5071602;28;20576;-52
2023/02/06 12:15:44;;;;;;;22.30;15.48;;;2.10;99.90;;;;;;5070899;28;20100;-53
2023/02/06 12:18:35;;;;;;;26.45;14.43;;;2.30;99.90;;;;;;5071390;28;20029;-54
2023/02/06 12:21:28;;;;;;;22.55;15.27;;;2.20;99.90;;;;;;5072132;28;20029;-51
2023/02/06 12:24:19;;;;;;;26.67;15.05;;;2.20;99.90;;;;;;5085718;28;20031;-55
2023/02/06 12:27:18;;;;;;;24.23;15.07;;;2.10;99.90;;;;;;5091098;28;20028;-49
2023/02/06 12:30:28;;;;;;;19.27;13.93;;;2.20;99.90;;;;;;5071830;28;20017;-56
2023/02/06 12:33:24;;;;;;;20.88;14.60;;;2.20;99.90;;;;;;5062186;28;20088;-54
2023/02/06 12:36:19;;;;;;;20.77;14.45;;;2.20;99.90;;;;;;5091281;28;20043;-52
2023/02/06 12:39:18;;;;;;;24.58;14.15;;;2.40;99.90;;;;;;5080687;28;20024;-56
2023/02/06 12:42:38;;;;;;;22.77;14.05;;;2.90;99.90;;;;;;5057915;28;20033;-50
2023/02/06 12:46:00;;;;;;;16.58;12.63;;;2.80;99.90;;;;;;5058821;28;20084;-55
2023/02/06 12:49:09;;;;;;;23.80;14.15;;;2.70;99.90;;;;;;5083584;28;20058;-50
2023/02/06 12:52:29;;;;;;;17.80;12.85;;;2.70;99.90;;;;;;5089722;28;20403;-54
2023/02/06 12:55:23;;;;;;;22.95;13.48;;;2.80;99.90;;;;;;5089540;28;20035;-58
2023/02/06 12:58:27;;;;;;;20.50;12.95;;;2.70;99.90;;;;;;5071146;28;20024;-50
2023/02/06 13:01:19;;;;;;;25.40;14.20;;;2.50;99.90;;;;;;5079043;28;20488;-56
2023/02/06 13:04:36;;;;;;;17.73;13.20;;;2.30;99.90;;;;;;5090778;28;20051;-49
2023/02/06 13:07:25;;;;;;;21.23;13.27;;;2.30;99.90;;;;;;5067866;28;20519;-56
2023/02/06 13:10:24;;;;;;;20.77;14.73;;;2.30;99.90;;;;;;5071755;28;20027;-48
2023/02/06 13:13:40;;;;;;;20.20;13.45;;;2.40;99.90;;;;;;5070991;28;20025;-54
2023/02/06 13:16:41;;;;;;;;;;;2.30;99.90;;;;;;5070826;28;20527;-54
2023/02/06 13:19:29;;;;;;;20.23;12.80;;;2.20;99.90;;;;;;5091138;28;19919;-51
2023/02/06 13:22:15;;;;;;;24.42;14.85;;;2.20;99.90;;;;;;5083795;28;20082;-50
2023/02/06 13:25:30;;;;;;;18.80;13.55;;;2.20;99.90;;;;;;5071113;28;20054;-53
2023/02/06 13:28:21;;;;;;;21.08;13.20;;;2.30;99.90;;;;;;5075788;28;20102;-53
2023/02/06 13:31:24;;;;;;;20.50;13.75;;;2.30;99.90;;;;;;5070554;28;20377;-51
2023/02/06 13:34:14;;;;;;;19.88;13.57;;;2.40;99.90;;;;;;5087738;28;20036;-55
2023/02/06 13:37:18;;;;;;;19.17;12.93;;;2.20;99.90;;;;;;5058692;28;20028;-52
2023/02/06 13:40:21;;;;;;;19.20;11.95;;;2.20;99.90;;;;;;5081856;28;20039;-51
2023/02/06 13:43:14;;;;;;;18.60;13.18;;;2.20;99.90;;;;;;5089931;28;20051;-56
2023/02/06 13:46:04;;;;;;;19.35;13.68;;;2.30;99.90;;;;;;5089379;28;20093;-51
2023/02/06 13:49:14;;;;;;;17.27;12.63;;;2.40;99.90;;;;;;5064872;28;20035;-53
2023/02/06 13:52:12;;;;;;;18.02;12.25;;;2.40;99.90;;;;;;5070786;28;20028;-55
2023/02/06 13:55:07;;;;;;;17.02;13.15;;;2.40;99.90;;;;;;5055365;28;20024;-53
2023/02/06 13:58:02;;;;;;;17.17;11.77;;;2.30;99.90;;;;;;5071103;28;20660;-53
2023/02/06 14:00:49;;;;;;;16.70;13.05;;;2.30;99.90;;;;;;5072585;28;20020;-54
2023/02/06 14:03:37;;;;;;;18.40;12.25;;;2.40;99.90;;;;;;5069233;28;20024;-51
2023/02/06 14:06:38;;;;;;;16.35;12.43;;;2.30;99.90;;;;;;5073845;28;20042;-54
2023/02/06 14:10:04;;;;;;;16.08;12.23;;;2.30;99.90;;;;;;5087596;28;20028;-56
2023/02/06 14:13:20;;;;;;;18.35;12.57;;;2.30;99.90;;;;;;5087461;28;20145;-54
2023/02/06 14:16:43;;;;;;;16.90;12.88;;;2.20;99.90;;;;;;5089905;28;20103;-52
2023/02/06 14:19:55;;;;;;;16.30;11.43;;;2.20;99.90;;;;;;5088699;28;20495;-54
2023/02/06 14:23:02;;;;;;;17.00;12.35;;;2.20;99.90;;;;;;5069962;28;20025;-54
2023/02/06 14:25:54;;;;;;;16.98;12.27;;;2.20;99.90;;;;;;5080057;28;20447;-57
2023/02/06 14:28:56;;;;;;;14.50;11.52;;;2.20;99.90;;;;;;5089407;28;20028;-56
2023/02/06 14:32:10;;;;;;;16.67;11.90;;;2.20;99.90;;;;;;5089056;28;20107;-52
2023/02/06 14:35:26;;;;;;;14.35;11.27;;;2.30;99.90;;;;;;5086486;28;20084;-53
2023/02/06 14:38:52;;;;;;;16.27;12.48;;;2.20;99.90;;;;;;5069482;28;20025;-53
2023/02/06 14:41:38;;;;;;;14.53;11.00;;;2.30;99.90;;;;;;5069791;28;20052;-56